Terminal Aerodrome Forecast
Issued by NWS Amarillo, TX

Current Version | Previous Version | Text Only | Print | Product List | Glossary Off
Versions: 1 2 3 4 5 6 7 8 9 10 11 12 13 14 15 16

000
FTUS44 KAMA 030200 AAA
TAFAMA
TAF AMD
KAMA 030216Z 0302/0324 09007KT P6SM FEW080 BKN120
      TEMPO 0303/0305 05020G30KT 6SM TSRA SCT025CB BKN060
     FM031600 07008KT P6SM SCT090 BKN200
     FM032000 10010G19KT P6SM BKN080 OVC200=

USA.gov is the U.S. government's official web portal to all federal, state and local government web resources and services.